sensor_id;sensor_type;location;lat;lon;timestamp;P1;durP1;ratioP1;P2;durP2;ratioP2
43700;SDS011;58809;47.984;7.964;2023-02-28T00:02:45;8.25;;;5.10;;
43700;SDS011;58809;47.984;7.964;2023-02-28T00:05:47;6.78;;;5.47;;
43700;SDS011;58809;47.984;7.964;2023-02-28T00:08:48;9.48;;;5.75;;
43700;SDS011;58809;47.984;7.964;2023-02-28T00:11:50;8.43;;;5.75;;
43700;SDS011;58809;47.984;7.964;2023-02-28T00:14:51;8.45;;;5.70;;
43700;SDS011;58809;47.984;7.964;2023-02-28T00:17:53;7.65;;;5.68;;
43700;SDS011;58809;47.984;7.964;2023-02-28T00:20:54;8.32;;;5.78;;
43700;SDS011;58809;47.984;7.964;2023-02-28T00:23:56;7.22;;;5.45;;
43700;SDS011;58809;47.984;7.964;2023-02-28T00:26:57;6.53;;;4.97;;
43700;SDS011;58809;47.984;7.964;2023-02-28T00:29:59;7.85;;;5.80;;
43700;SDS011;58809;47.984;7.964;2023-02-28T00:33:01;6.60;;;5.35;;
43700;SDS011;58809;47.984;7.964;2023-02-28T00:36:06;8.32;;;5.50;;
43700;SDS011;58809;47.984;7.964;2023-02-28T00:39:13;7.90;;;5.80;;
43700;SDS011;58809;47.984;7.964;2023-02-28T00:42:14;7.93;;;5.90;;
43700;SDS011;58809;47.984;7.964;2023-02-28T00:45:16;8.48;;;5.60;;
43700;SDS011;58809;47.984;7.964;2023-02-28T00:48:18;12.45;;;6.00;;
43700;SDS011;58809;47.984;7.964;2023-02-28T00:51:19;6.55;;;5.30;;
43700;SDS011;58809;47.984;7.964;2023-02-28T00:54:21;6.93;;;5.30;;
43700;SDS011;58809;47.984;7.964;2023-02-28T00:57:23;7.22;;;5.68;;
43700;SDS011;58809;47.984;7.964;2023-02-28T01:00:24;7.85;;;6.13;;
43700;SDS011;58809;47.984;7.964;2023-02-28T01:03:26;9.52;;;6.32;;
43700;SDS011;58809;47.984;7.964;2023-02-28T01:06:27;7.35;;;5.63;;
43700;SDS011;58809;47.984;7.964;2023-02-28T01:09:29;7.38;;;5.57;;
43700;SDS011;58809;47.984;7.964;2023-02-28T01:12:32;8.48;;;5.75;;
43700;SDS011;58809;47.984;7.964;2023-02-28T01:15:33;8.45;;;6.10;;
43700;SDS011;58809;47.984;7.964;2023-02-28T01:18:35;9.40;;;5.93;;
43700;SDS011;58809;47.984;7.964;2023-02-28T01:21:38;7.63;;;5.57;;
43700;SDS011;58809;47.984;7.964;2023-02-28T01:24:40;9.85;;;6.38;;
43700;SDS011;58809;47.984;7.964;2023-02-28T01:27:41;8.82;;;5.63;;
43700;SDS011;58809;47.984;7.964;2023-02-28T01:30:46;7.63;;;6.07;;
43700;SDS011;58809;47.984;7.964;2023-02-28T01:33:49;8.57;;;6.43;;
43700;SDS011;58809;47.984;7.964;2023-02-28T01:36:51;8.93;;;6.35;;
43700;SDS011;58809;47.984;7.964;2023-02-28T01:39:52;8.60;;;5.80;;
43700;SDS011;58809;47.984;7.964;2023-02-28T01:42:54;7.75;;;6.28;;
43700;SDS011;58809;47.984;7.964;2023-02-28T01:45:56;6.15;;;5.50;;
43700;SDS011;58809;47.984;7.964;2023-02-28T01:49:09;8.98;;;6.00;;
43700;SDS011;58809;47.984;7.964;2023-02-28T01:52:14;7.95;;;6.10;;
43700;SDS011;58809;47.984;7.964;2023-02-28T01:55:20;8.88;;;6.00;;
43700;SDS011;58809;47.984;7.964;2023-02-28T01:58:24;7.50;;;6.07;;
43700;SDS011;58809;47.984;7.964;2023-02-28T02:01:26;7.95;;;5.88;;
43700;SDS011;58809;47.984;7.964;2023-02-28T02:04:32;6.72;;;6.00;;
43700;SDS011;58809;47.984;7.964;2023-02-28T02:07:40;8.00;;;5.75;;
43700;SDS011;58809;47.984;7.964;2023-02-28T02:10:48;7.75;;;6.25;;
43700;SDS011;58809;47.984;7.964;2023-02-28T02:17:28;7.95;;;5.85;;
43700;SDS011;58809;47.984;7.964;2023-02-28T02:30:33;8.90;;;5.50;;
43700;SDS011;58809;47.984;7.964;2023-02-28T02:40:30;8.38;;;6.00;;
43700;SDS011;58809;47.984;7.964;2023-02-28T02:43:47;6.82;;;5.60;;
43700;SDS011;58809;47.984;7.964;2023-02-28T02:47:06;7.28;;;5.28;;
43700;SDS011;58809;47.984;7.964;2023-02-28T02:50:13;7.43;;;6.15;;
43700;SDS011;58809;47.984;7.964;2023-02-28T02:53:23;7.20;;;5.70;;
43700;SDS011;58809;47.984;7.964;2023-02-28T02:56:31;6.03;;;5.43;;
43700;SDS011;58809;47.984;7.964;2023-02-28T02:59:35;6.93;;;5.65;;
43700;SDS011;58809;47.984;7.964;2023-02-28T03:02:40;6.55;;;5.80;;
43700;SDS011;58809;47.984;7.964;2023-02-28T03:05:44;9.18;;;5.97;;
43700;SDS011;58809;47.984;7.964;2023-02-28T03:08:49;8.63;;;5.93;;
43700;SDS011;58809;47.984;7.964;2023-02-28T03:11:51;8.13;;;5.70;;
43700;SDS011;58809;47.984;7.964;2023-02-28T03:14:56;7.50;;;6.32;;
43700;SDS011;58809;47.984;7.964;2023-02-28T03:18:30;9.10;;;6.28;;
43700;SDS011;58809;47.984;7.964;2023-02-28T03:25:14;7.78;;;6.10;;
43700;SDS011;58809;47.984;7.964;2023-02-28T03:28:41;8.93;;;6.13;;
43700;SDS011;58809;47.984;7.964;2023-02-28T03:31:53;7.45;;;5.88;;
43700;SDS011;58809;47.984;7.964;2023-02-28T03:35:20;8.50;;;6.22;;
43700;SDS011;58809;47.984;7.964;2023-02-28T03:38:38;7.38;;;6.05;;
43700;SDS011;58809;47.984;7.964;2023-02-28T03:51:23;7.97;;;6.47;;
43700;SDS011;58809;47.984;7.964;2023-02-28T03:54:28;8.85;;;6.28;;
43700;SDS011;58809;47.984;7.964;2023-02-28T03:57:42;7.60;;;6.07;;
43700;SDS011;58809;47.984;7.964;2023-02-28T04:00:54;7.25;;;6.10;;
43700;SDS011;58809;47.984;7.964;2023-02-28T04:04:00;8.88;;;7.00;;
43700;SDS011;58809;47.984;7.964;2023-02-28T04:07:08;8.80;;;7.53;;
43700;SDS011;58809;47.984;7.964;2023-02-28T04:10:12;9.02;;;7.10;;
43700;SDS011;58809;47.984;7.964;2023-02-28T04:13:14;8.05;;;6.32;;
43700;SDS011;58809;47.984;7.964;2023-02-28T04:16:15;7.85;;;6.70;;
43700;SDS011;58809;47.984;7.964;2023-02-28T04:19:34;8.57;;;7.05;;
43700;SDS011;58809;47.984;7.964;2023-02-28T04:22:36;8.20;;;6.72;;
43700;SDS011;58809;47.984;7.964;2023-02-28T04:25:38;7.97;;;6.65;;
43700;SDS011;58809;47.984;7.964;2023-02-28T04:28:41;8.73;;;6.53;;
43700;SDS011;58809;47.984;7.964;2023-02-28T04:31:42;9.25;;;6.88;;
43700;SDS011;58809;47.984;7.964;2023-02-28T04:34:44;7.60;;;6.30;;
43700;SDS011;58809;47.984;7.964;2023-02-28T04:37:46;9.00;;;6.93;;
43700;SDS011;58809;47.984;7.964;2023-02-28T04:40:47;7.82;;;6.65;;
43700;SDS011;58809;47.984;7.964;2023-02-28T04:43:49;9.45;;;6.75;;
43700;SDS011;58809;47.984;7.964;2023-02-28T04:46:52;8.60;;;6.57;;
43700;SDS011;58809;47.984;7.964;2023-02-28T04:49:54;8.88;;;6.30;;
43700;SDS011;58809;47.984;7.964;2023-02-28T04:52:56;7.20;;;6.35;;
43700;SDS011;58809;47.984;7.964;2023-02-28T04:55:58;7.15;;;6.45;;
43700;SDS011;58809;47.984;7.964;2023-02-28T04:58:59;9.80;;;6.72;;
43700;SDS011;58809;47.984;7.964;2023-02-28T05:02:01;8.75;;;6.57;;
43700;SDS011;58809;47.984;7.964;2023-02-28T05:05:07;8.07;;;6.65;;
43700;SDS011;58809;47.984;7.964;2023-02-28T05:08:09;7.38;;;6.57;;
43700;SDS011;58809;47.984;7.964;2023-02-28T05:11:15;7.47;;;6.35;;
43700;SDS011;58809;47.984;7.964;2023-02-28T05:14:21;8.55;;;6.68;;
43700;SDS011;58809;47.984;7.964;2023-02-28T05:17:23;7.32;;;6.57;;
43700;SDS011;58809;47.984;7.964;2023-02-28T05:20:24;8.40;;;6.65;;
43700;SDS011;58809;47.984;7.964;2023-02-28T05:23:26;10.55;;;7.53;;
43700;SDS011;58809;47.984;7.964;2023-02-28T05:26:28;6.85;;;6.00;;
43700;SDS011;58809;47.984;7.964;2023-02-28T05:29:30;9.75;;;7.07;;
43700;SDS011;58809;47.984;7.964;2023-02-28T05:32:32;8.70;;;7.15;;
43700;SDS011;58809;47.984;7.964;2023-02-28T05:35:33;9.27;;;7.07;;
43700;SDS011;58809;47.984;7.964;2023-02-28T05:38:42;7.28;;;6.47;;
43700;SDS011;58809;47.984;7.964;2023-02-28T05:41:43;7.78;;;6.97;;
43700;SDS011;58809;47.984;7.964;2023-02-28T05:44:45;8.20;;;7.28;;
43700;SDS011;58809;47.984;7.964;2023-02-28T05:47:47;8.77;;;7.32;;
43700;SDS011;58809;47.984;7.964;2023-02-28T05:50:48;9.75;;;7.55;;
43700;SDS011;58809;47.984;7.964;2023-02-28T05:53:50;10.50;;;7.55;;
43700;SDS011;58809;47.984;7.964;2023-02-28T05:56:51;10.27;;;8.55;;
43700;SDS011;58809;47.984;7.964;2023-02-28T05:59:53;11.70;;;8.10;;
43700;SDS011;58809;47.984;7.964;2023-02-28T06:02:54;9.05;;;7.03;;
43700;SDS011;58809;47.984;7.964;2023-02-28T06:05:59;7.95;;;7.03;;
43700;SDS011;58809;47.984;7.964;2023-02-28T06:09:00;10.07;;;7.75;;
43700;SDS011;58809;47.984;7.964;2023-02-28T06:12:04;8.18;;;7.25;;
43700;SDS011;58809;47.984;7.964;2023-02-28T06:15:12;11.05;;;7.88;;
43700;SDS011;58809;47.984;7.964;2023-02-28T06:18:15;8.68;;;6.85;;
43700;SDS011;58809;47.984;7.964;2023-02-28T06:21:16;9.77;;;7.82;;
43700;SDS011;58809;47.984;7.964;2023-02-28T06:24:18;7.80;;;7.00;;
43700;SDS011;58809;47.984;7.964;2023-02-28T06:27:23;10.38;;;6.80;;
43700;SDS011;58809;47.984;7.964;2023-02-28T06:30:25;7.93;;;7.13;;
43700;SDS011;58809;47.984;7.964;2023-02-28T06:33:28;9.03;;;7.10;;
43700;SDS011;58809;47.984;7.964;2023-02-28T06:36:29;7.60;;;6.53;;
43700;SDS011;58809;47.984;7.964;2023-02-28T06:39:31;8.85;;;6.50;;
43700;SDS011;58809;47.984;7.964;2023-02-28T06:42:33;8.48;;;7.15;;
43700;SDS011;58809;47.984;7.964;2023-02-28T06:45:34;9.93;;;7.10;;
43700;SDS011;58809;47.984;7.964;2023-02-28T06:48:37;8.98;;;7.68;;
43700;SDS011;58809;47.984;7.964;2023-02-28T06:51:39;9.07;;;6.75;;
43700;SDS011;58809;47.984;7.964;2023-02-28T06:54:46;8.68;;;6.57;;
43700;SDS011;58809;47.984;7.964;2023-02-28T06:57:47;7.32;;;6.28;;
43700;SDS011;58809;47.984;7.964;2023-02-28T07:00:52;8.88;;;6.70;;
43700;SDS011;58809;47.984;7.964;2023-02-28T07:03:54;10.10;;;6.90;;
43700;SDS011;58809;47.984;7.964;2023-02-28T07:06:56;9.80;;;6.50;;
43700;SDS011;58809;47.984;7.964;2023-02-28T07:09:58;8.35;;;7.13;;
43700;SDS011;58809;47.984;7.964;2023-02-28T07:13:00;8.05;;;6.85;;
43700;SDS011;58809;47.984;7.964;2023-02-28T07:16:05;8.88;;;7.43;;
43700;SDS011;58809;47.984;7.964;2023-02-28T07:19:10;8.95;;;7.03;;
43700;SDS011;58809;47.984;7.964;2023-02-28T07:22:12;8.48;;;7.45;;
43700;SDS011;58809;47.984;7.964;2023-02-28T07:28:17;9.68;;;6.95;;
43700;SDS011;58809;47.984;7.964;2023-02-28T07:31:19;11.50;;;8.60;;
43700;SDS011;58809;47.984;7.964;2023-02-28T07:34:20;11.27;;;8.88;;
43700;SDS011;58809;47.984;7.964;2023-02-28T07:37:22;18.35;;;8.73;;
43700;SDS011;58809;47.984;7.964;2023-02-28T07:40:24;9.52;;;7.22;;
43700;SDS011;58809;47.984;7.964;2023-02-28T07:43:26;14.68;;;10.68;;
43700;SDS011;58809;47.984;7.964;2023-02-28T07:46:27;20.80;;;12.90;;
43700;SDS011;58809;47.984;7.964;2023-02-28T07:49:31;12.85;;;10.43;;
43700;SDS011;58809;47.984;7.964;2023-02-28T07:52:33;13.18;;;9.85;;
43700;SDS011;58809;47.984;7.964;2023-02-28T07:55:34;19.33;;;11.93;;
43700;SDS011;58809;47.984;7.964;2023-02-28T07:58:36;18.90;;;12.65;;
43700;SDS011;58809;47.984;7.964;2023-02-28T08:01:37;12.55;;;9.30;;
43700;SDS011;58809;47.984;7.964;2023-02-28T08:04:39;16.75;;;9.75;;
43700;SDS011;58809;47.984;7.964;2023-02-28T08:07:41;16.33;;;9.43;;
43700;SDS011;58809;47.984;7.964;2023-02-28T08:10:43;17.33;;;10.20;;
43700;SDS011;58809;47.984;7.964;2023-02-28T08:13:45;12.20;;;9.23;;
43700;SDS011;58809;47.984;7.964;2023-02-28T08:16:46;13.93;;;10.40;;
43700;SDS011;58809;47.984;7.964;2023-02-28T08:19:48;14.25;;;10.25;;
43700;SDS011;58809;47.984;7.964;2023-02-28T08:22:50;17.45;;;10.30;;
43700;SDS011;58809;47.984;7.964;2023-02-28T08:25:55;21.85;;;11.45;;
43700;SDS011;58809;47.984;7.964;2023-02-28T08:28:57;16.75;;;10.23;;
43700;SDS011;58809;47.984;7.964;2023-02-28T08:32:01;20.27;;;10.00;;
43700;SDS011;58809;47.984;7.964;2023-02-28T08:35:03;12.98;;;9.30;;
43700;SDS011;58809;47.984;7.964;2023-02-28T08:38:05;15.52;;;9.50;;
43700;SDS011;58809;47.984;7.964;2023-02-28T08:41:07;15.15;;;9.50;;
43700;SDS011;58809;47.984;7.964;2023-02-28T08:44:11;12.30;;;9.27;;
43700;SDS011;58809;47.984;7.964;2023-02-28T08:47:12;14.60;;;9.10;;
43700;SDS011;58809;47.984;7.964;2023-02-28T08:50:14;11.63;;;9.20;;
43700;SDS011;58809;47.984;7.964;2023-02-28T08:53:16;14.75;;;9.88;;
43700;SDS011;58809;47.984;7.964;2023-02-28T08:56:19;14.43;;;9.82;;
43700;SDS011;58809;47.984;7.964;2023-02-28T08:59:20;12.15;;;9.32;;
43700;SDS011;58809;47.984;7.964;2023-02-28T09:02:22;14.07;;;9.52;;
43700;SDS011;58809;47.984;7.964;2023-02-28T09:05:23;14.20;;;10.52;;
43700;SDS011;58809;47.984;7.964;2023-02-28T09:08:25;17.70;;;9.95;;
43700;SDS011;58809;47.984;7.964;2023-02-28T09:11:28;15.65;;;9.32;;
43700;SDS011;58809;47.984;7.964;2023-02-28T09:14:30;19.80;;;9.73;;
43700;SDS011;58809;47.984;7.964;2023-02-28T09:17:32;12.43;;;9.63;;
43700;SDS011;58809;47.984;7.964;2023-02-28T09:20:33;26.38;;;10.27;;
43700;SDS011;58809;47.984;7.964;2023-02-28T09:23:35;10.80;;;9.07;;
43700;SDS011;58809;47.984;7.964;2023-02-28T09:26:39;14.50;;;10.05;;
43700;SDS011;58809;47.984;7.964;2023-02-28T09:29:51;12.20;;;9.00;;
43700;SDS011;58809;47.984;7.964;2023-02-28T09:32:53;13.23;;;10.07;;
43700;SDS011;58809;47.984;7.964;2023-02-28T09:35:58;13.77;;;10.23;;
43700;SDS011;58809;47.984;7.964;2023-02-28T09:39:02;14.27;;;10.05;;
43700;SDS011;58809;47.984;7.964;2023-02-28T09:42:04;18.33;;;10.27;;
43700;SDS011;58809;47.984;7.964;2023-02-28T09:45:15;14.23;;;10.10;;
43700;SDS011;58809;47.984;7.964;2023-02-28T09:48:25;15.82;;;11.10;;
43700;SDS011;58809;47.984;7.964;2023-02-28T09:51:45;12.80;;;9.70;;
43700;SDS011;58809;47.984;7.964;2023-02-28T09:54:52;18.52;;;10.20;;
43700;SDS011;58809;47.984;7.964;2023-02-28T09:57:54;13.20;;;9.95;;
43700;SDS011;58809;47.984;7.964;2023-02-28T10:01:07;16.15;;;10.05;;
43700;SDS011;58809;47.984;7.964;2023-02-28T10:07:47;13.70;;;9.73;;
43700;SDS011;58809;47.984;7.964;2023-02-28T10:11:01;15.13;;;9.57;;
43700;SDS011;58809;47.984;7.964;2023-02-28T10:17:26;14.75;;;10.00;;
43700;SDS011;58809;47.984;7.964;2023-02-28T10:20:39;11.35;;;10.00;;
43700;SDS011;58809;47.984;7.964;2023-02-28T10:23:43;13.90;;;10.10;;
43700;SDS011;58809;47.984;7.964;2023-02-28T10:26:49;11.02;;;9.55;;
43700;SDS011;58809;47.984;7.964;2023-02-28T10:29:55;15.18;;;10.77;;
43700;SDS011;58809;47.984;7.964;2023-02-28T10:36:01;13.13;;;9.68;;
43700;SDS011;58809;47.984;7.964;2023-02-28T10:42:58;17.98;;;11.38;;
43700;SDS011;58809;47.984;7.964;2023-02-28T10:49:13;15.38;;;10.35;;
43700;SDS011;58809;47.984;7.964;2023-02-28T10:52:38;14.90;;;10.25;;
43700;SDS011;58809;47.984;7.964;2023-02-28T10:55:41;12.77;;;9.88;;
43700;SDS011;58809;47.984;7.964;2023-02-28T11:01:52;21.13;;;10.98;;
43700;SDS011;58809;47.984;7.964;2023-02-28T11:04:54;13.77;;;9.95;;
43700;SDS011;58809;47.984;7.964;2023-02-28T11:08:12;13.98;;;10.10;;
43700;SDS011;58809;47.984;7.964;2023-02-28T11:11:16;12.52;;;10.32;;
43700;SDS011;58809;47.984;7.964;2023-02-28T11:14:19;12.93;;;9.73;;
43700;SDS011;58809;47.984;7.964;2023-02-28T11:17:30;17.42;;;11.15;;
43700;SDS011;58809;47.984;7.964;2023-02-28T11:20:33;19.75;;;10.55;;
43700;SDS011;58809;47.984;7.964;2023-02-28T11:23:35;14.15;;;9.68;;
43700;SDS011;58809;47.984;7.964;2023-02-28T11:26:43;12.82;;;9.95;;
43700;SDS011;58809;47.984;7.964;2023-02-28T11:29:47;14.02;;;10.45;;
43700;SDS011;58809;47.984;7.964;2023-02-28T11:32:49;16.25;;;10.48;;
43700;SDS011;58809;47.984;7.964;2023-02-28T11:35:51;15.20;;;11.52;;
43700;SDS011;58809;47.984;7.964;2023-02-28T11:38:56;14.70;;;10.13;;
43700;SDS011;58809;47.984;7.964;2023-02-28T11:48:49;11.75;;;10.52;;
43700;SDS011;58809;47.984;7.964;2023-02-28T12:11:52;13.13;;;11.20;;
43700;SDS011;58809;47.984;7.964;2023-02-28T12:28:01;13.98;;;11.55;;
43700;SDS011;58809;47.984;7.964;2023-02-28T12:31:05;17.50;;;12.07;;
43700;SDS011;58809;47.984;7.964;2023-02-28T12:34:14;15.43;;;12.63;;
43700;SDS011;58809;47.984;7.964;2023-02-28T12:37:25;15.98;;;11.45;;
43700;SDS011;58809;47.984;7.964;2023-02-28T12:41:14;14.93;;;11.52;;
43700;SDS011;58809;47.984;7.964;2023-02-28T12:44:05;14.32;;;11.32;;
43700;SDS011;58809;47.984;7.964;2023-02-28T12:47:14;22.02;;;12.63;;
43700;SDS011;58809;47.984;7.964;2023-02-28T12:53:27;13.20;;;10.70;;
43700;SDS011;58809;47.984;7.964;2023-02-28T12:57:13;19.50;;;14.27;;
43700;SDS011;58809;47.984;7.964;2023-02-28T13:00:12;14.23;;;11.32;;
43700;SDS011;58809;47.984;7.964;2023-02-28T13:09:57;14.48;;;11.30;;
43700;SDS011;58809;47.984;7.964;2023-02-28T13:13:02;15.88;;;12.35;;
43700;SDS011;58809;47.984;7.964;2023-02-28T13:19:10;14.93;;;10.98;;
43700;SDS011;58809;47.984;7.964;2023-02-28T13:22:20;18.30;;;11.98;;
43700;SDS011;58809;47.984;7.964;2023-02-28T13:38:09;16.98;;;11.40;;
43700;SDS011;58809;47.984;7.964;2023-02-28T13:45:18;11.60;;;10.35;;
43700;SDS011;58809;47.984;7.964;2023-02-28T13:48:14;15.68;;;11.60;;
43700;SDS011;58809;47.984;7.964;2023-02-28T13:51:28;14.98;;;12.27;;
43700;SDS011;58809;47.984;7.964;2023-02-28T14:07:39;14.65;;;12.30;;
43700;SDS011;58809;47.984;7.964;2023-02-28T14:10:48;14.05;;;12.30;;
43700;SDS011;58809;47.984;7.964;2023-02-28T14:13:51;14.00;;;11.98;;
43700;SDS011;58809;47.984;7.964;2023-02-28T14:16:53;15.73;;;12.10;;
43700;SDS011;58809;47.984;7.964;2023-02-28T14:19:55;17.52;;;12.82;;
43700;SDS011;58809;47.984;7.964;2023-02-28T14:23:45;17.60;;;13.50;;
43700;SDS011;58809;47.984;7.964;2023-02-28T14:36:21;14.18;;;12.10;;
43700;SDS011;58809;47.984;7.964;2023-02-28T14:39:27;15.73;;;12.02;;
43700;SDS011;58809;47.984;7.964;2023-02-28T14:42:33;18.40;;;13.02;;
43700;SDS011;58809;47.984;7.964;2023-02-28T14:45:36;14.52;;;12.88;;
43700;SDS011;58809;47.984;7.964;2023-02-28T14:48:38;15.45;;;12.25;;
43700;SDS011;58809;47.984;7.964;2023-02-28T14:51:40;16.50;;;13.07;;
43700;SDS011;58809;47.984;7.964;2023-02-28T14:54:41;18.88;;;13.10;;
43700;SDS011;58809;47.984;7.964;2023-02-28T14:57:55;15.40;;;13.55;;
43700;SDS011;58809;47.984;7.964;2023-02-28T15:01:00;15.23;;;12.85;;
43700;SDS011;58809;47.984;7.964;2023-02-28T15:04:05;15.13;;;12.95;;
43700;SDS011;58809;47.984;7.964;2023-02-28T15:07:15;15.32;;;12.57;;
43700;SDS011;58809;47.984;7.964;2023-02-28T15:13:26;15.68;;;13.75;;
43700;SDS011;58809;47.984;7.964;2023-02-28T15:16:41;16.58;;;13.68;;
43700;SDS011;58809;47.984;7.964;2023-02-28T15:19:46;14.90;;;12.55;;
43700;SDS011;58809;47.984;7.964;2023-02-28T15:22:51;17.08;;;13.68;;
43700;SDS011;58809;47.984;7.964;2023-02-28T15:25:57;15.35;;;12.40;;
43700;SDS011;58809;47.984;7.964;2023-02-28T15:29:01;15.30;;;13.02;;
43700;SDS011;58809;47.984;7.964;2023-02-28T15:32:07;15.88;;;13.18;;
43700;SDS011;58809;47.984;7.964;2023-02-28T15:35:25;19.80;;;14.60;;
43700;SDS011;58809;47.984;7.964;2023-02-28T15:38:33;15.85;;;12.77;;
43700;SDS011;58809;47.984;7.964;2023-02-28T15:41:37;16.40;;;12.43;;
43700;SDS011;58809;47.984;7.964;2023-02-28T15:44:39;16.52;;;13.55;;
43700;SDS011;58809;47.984;7.964;2023-02-28T15:47:44;14.75;;;13.18;;
43700;SDS011;58809;47.984;7.964;2023-02-28T15:50:48;19.23;;;14.10;;
43700;SDS011;58809;47.984;7.964;2023-02-28T15:54:02;16.83;;;13.93;;
43700;SDS011;58809;47.984;7.964;2023-02-28T15:57:13;16.67;;;13.15;;
43700;SDS011;58809;47.984;7.964;2023-02-28T16:00:19;15.20;;;13.55;;
43700;SDS011;58809;47.984;7.964;2023-02-28T16:03:27;17.30;;;14.23;;
43700;SDS011;58809;47.984;7.964;2023-02-28T16:06:43;16.92;;;14.18;;
43700;SDS011;58809;47.984;7.964;2023-02-28T16:09:45;19.25;;;14.18;;
43700;SDS011;58809;47.984;7.964;2023-02-28T16:12:48;15.95;;;14.15;;
43700;SDS011;58809;47.984;7.964;2023-02-28T16:15:49;14.68;;;13.07;;
43700;SDS011;58809;47.984;7.964;2023-02-28T16:18:52;20.55;;;13.77;;
43700;SDS011;58809;47.984;7.964;2023-02-28T16:21:54;15.60;;;13.07;;
43700;SDS011;58809;47.984;7.964;2023-02-28T16:24:56;18.52;;;13.60;;
43700;SDS011;58809;47.984;7.964;2023-02-28T16:27:57;18.80;;;14.35;;
43700;SDS011;58809;47.984;7.964;2023-02-28T16:31:01;18.85;;;14.00;;
43700;SDS011;58809;47.984;7.964;2023-02-28T16:37:10;18.95;;;14.85;;
43700;SDS011;58809;47.984;7.964;2023-02-28T16:40:15;17.80;;;14.48;;
43700;SDS011;58809;47.984;7.964;2023-02-28T16:43:19;17.42;;;13.60;;
43700;SDS011;58809;47.984;7.964;2023-02-28T16:46:31;18.35;;;14.85;;
43700;SDS011;58809;47.984;7.964;2023-02-28T16:49:35;18.20;;;15.48;;
43700;SDS011;58809;47.984;7.964;2023-02-28T16:52:37;18.85;;;14.25;;
43700;SDS011;58809;47.984;7.964;2023-02-28T16:55:38;18.95;;;13.75;;
43700;SDS011;58809;47.984;7.964;2023-02-28T16:58:40;15.77;;;13.45;;
43700;SDS011;58809;47.984;7.964;2023-02-28T17:01:42;14.48;;;12.07;;
43700;SDS011;58809;47.984;7.964;2023-02-28T17:04:43;16.83;;;12.65;;
43700;SDS011;58809;47.984;7.964;2023-02-28T17:07:45;17.63;;;13.32;;
43700;SDS011;58809;47.984;7.964;2023-02-28T17:10:48;29.17;;;21.08;;
43700;SDS011;58809;47.984;7.964;2023-02-28T17:13:49;24.92;;;19.35;;
43700;SDS011;58809;47.984;7.964;2023-02-28T17:16:51;24.10;;;17.58;;
43700;SDS011;58809;47.984;7.964;2023-02-28T17:19:53;24.27;;;17.45;;
43700;SDS011;58809;47.984;7.964;2023-02-28T17:22:54;18.27;;;16.05;;
43700;SDS011;58809;47.984;7.964;2023-02-28T17:25:57;20.60;;;16.65;;
43700;SDS011;58809;47.984;7.964;2023-02-28T17:28:58;22.27;;;17.15;;
43700;SDS011;58809;47.984;7.964;2023-02-28T17:32:00;24.48;;;16.45;;
43700;SDS011;58809;47.984;7.964;2023-02-28T17:35:17;23.48;;;18.88;;
43700;SDS011;58809;47.984;7.964;2023-02-28T17:38:19;24.83;;;18.95;;
43700;SDS011;58809;47.984;7.964;2023-02-28T17:41:20;28.60;;;22.52;;
43700;SDS011;58809;47.984;7.964;2023-02-28T17:44:22;26.02;;;20.10;;
43700;SDS011;58809;47.984;7.964;2023-02-28T17:47:25;24.40;;;18.33;;
43700;SDS011;58809;47.984;7.964;2023-02-28T17:50:26;24.92;;;18.70;;
43700;SDS011;58809;47.984;7.964;2023-02-28T17:53:29;37.70;;;27.10;;
43700;SDS011;58809;47.984;7.964;2023-02-28T17:56:31;28.05;;;21.17;;
43700;SDS011;58809;47.984;7.964;2023-02-28T17:59:33;34.88;;;23.10;;
43700;SDS011;58809;47.984;7.964;2023-02-28T18:02:34;36.42;;;25.38;;
43700;SDS011;58809;47.984;7.964;2023-02-28T18:05:36;30.55;;;22.65;;
43700;SDS011;58809;47.984;7.964;2023-02-28T18:08:38;22.65;;;17.67;;
43700;SDS011;58809;47.984;7.964;2023-02-28T18:11:40;22.67;;;17.45;;
43700;SDS011;58809;47.984;7.964;2023-02-28T18:14:50;20.58;;;17.40;;
43700;SDS011;58809;47.984;7.964;2023-02-28T18:17:51;21.27;;;17.67;;
43700;SDS011;58809;47.984;7.964;2023-02-28T18:20:53;21.55;;;18.10;;
43700;SDS011;58809;47.984;7.964;2023-02-28T18:23:54;32.17;;;19.10;;
43700;SDS011;58809;47.984;7.964;2023-02-28T18:26:57;23.70;;;19.60;;
43700;SDS011;58809;47.984;7.964;2023-02-28T18:29:58;23.52;;;18.63;;
43700;SDS011;58809;47.984;7.964;2023-02-28T18:33:00;21.00;;;17.63;;
43700;SDS011;58809;47.984;7.964;2023-02-28T18:36:02;26.45;;;20.65;;
43700;SDS011;58809;47.984;7.964;2023-02-28T18:39:04;23.80;;;18.10;;
43700;SDS011;58809;47.984;7.964;2023-02-28T18:42:06;24.33;;;18.10;;
43700;SDS011;58809;47.984;7.964;2023-02-28T18:45:08;36.60;;;27.67;;
43700;SDS011;58809;47.984;7.964;2023-02-28T18:48:10;36.47;;;24.88;;
43700;SDS011;58809;47.984;7.964;2023-02-28T18:51:13;37.75;;;27.60;;
43700;SDS011;58809;47.984;7.964;2023-02-28T18:54:17;45.38;;;33.97;;
43700;SDS011;58809;47.984;7.964;2023-02-28T18:57:19;32.97;;;26.73;;
43700;SDS011;58809;47.984;7.964;2023-02-28T19:00:20;25.10;;;20.30;;
43700;SDS011;58809;47.984;7.964;2023-02-28T19:03:23;20.92;;;17.85;;
43700;SDS011;58809;47.984;7.964;2023-02-28T19:06:24;21.77;;;17.92;;
43700;SDS011;58809;47.984;7.964;2023-02-28T19:09:27;25.60;;;19.95;;
43700;SDS011;58809;47.984;7.964;2023-02-28T19:12:31;21.15;;;17.40;;
43700;SDS011;58809;47.984;7.964;2023-02-28T19:15:34;24.27;;;19.35;;
43700;SDS011;58809;47.984;7.964;2023-02-28T19:18:36;21.60;;;17.73;;
43700;SDS011;58809;47.984;7.964;2023-02-28T19:21:39;25.98;;;22.52;;
43700;SDS011;58809;47.984;7.964;2023-02-28T19:24:40;24.25;;;20.85;;
43700;SDS011;58809;47.984;7.964;2023-02-28T19:27:42;21.25;;;18.63;;
43700;SDS011;58809;47.984;7.964;2023-02-28T19:30:46;25.60;;;20.52;;
43700;SDS011;58809;47.984;7.964;2023-02-28T19:33:50;22.42;;;17.38;;
43700;SDS011;58809;47.984;7.964;2023-02-28T19:36:54;20.75;;;15.73;;
43700;SDS011;58809;47.984;7.964;2023-02-28T19:39:57;20.17;;;16.27;;
43700;SDS011;58809;47.984;7.964;2023-02-28T19:42:58;20.60;;;16.75;;
43700;SDS011;58809;47.984;7.964;2023-02-28T19:46:04;20.20;;;16.23;;
43700;SDS011;58809;47.984;7.964;2023-02-28T19:49:05;23.58;;;17.08;;
43700;SDS011;58809;47.984;7.964;2023-02-28T19:52:07;25.02;;;20.50;;
43700;SDS011;58809;47.984;7.964;2023-02-28T19:55:15;27.38;;;20.27;;
43700;SDS011;58809;47.984;7.964;2023-02-28T19:58:18;25.95;;;20.83;;
43700;SDS011;58809;47.984;7.964;2023-02-28T20:01:19;23.90;;;18.60;;
43700;SDS011;58809;47.984;7.964;2023-02-28T20:04:22;22.00;;;17.45;;
43700;SDS011;58809;47.984;7.964;2023-02-28T20:07:24;27.08;;;18.67;;
43700;SDS011;58809;47.984;7.964;2023-02-28T20:10:25;26.30;;;19.05;;
43700;SDS011;58809;47.984;7.964;2023-02-28T20:13:27;29.20;;;20.45;;
43700;SDS011;58809;47.984;7.964;2023-02-28T20:16:29;32.60;;;23.30;;
43700;SDS011;58809;47.984;7.964;2023-02-28T20:19:32;32.17;;;23.42;;
43700;SDS011;58809;47.984;7.964;2023-02-28T20:22:33;29.80;;;20.63;;
43700;SDS011;58809;47.984;7.964;2023-02-28T20:25:38;25.27;;;19.23;;
43700;SDS011;58809;47.984;7.964;2023-02-28T20:28:41;24.20;;;18.25;;
43700;SDS011;58809;47.984;7.964;2023-02-28T20:31:43;33.63;;;21.38;;
43700;SDS011;58809;47.984;7.964;2023-02-28T20:34:45;42.03;;;29.48;;
43700;SDS011;58809;47.984;7.964;2023-02-28T20:37:46;26.15;;;20.23;;
43700;SDS011;58809;47.984;7.964;2023-02-28T20:40:48;25.25;;;18.30;;
43700;SDS011;58809;47.984;7.964;2023-02-28T20:43:53;29.45;;;19.58;;
43700;SDS011;58809;47.984;7.964;2023-02-28T20:46:58;25.98;;;20.15;;
43700;SDS011;58809;47.984;7.964;2023-02-28T20:50:00;23.77;;;18.88;;